sensor_id;sensor_type;location;lat;lon;timestamp;temperature;humidity
40323;DHT22;26030;51.164;17.100;2023-03-17T00:04:09;22.90;54.20
40323;DHT22;26030;51.164;17.100;2023-03-17T00:09:15;22.80;54.50
40323;DHT22;26030;51.164;17.100;2023-03-17T00:14:21;22.70;54.80
40323;DHT22;26030;51.164;17.100;2023-03-17T00:19:27;22.70;54.60
40323;DHT22;26030;51.164;17.100;2023-03-17T00:24:34;22.70;54.60
40323;DHT22;26030;51.164;17.100;2023-03-17T00:29:39;22.60;54.60
40323;DHT22;26030;51.164;17.100;2023-03-17T00:34:43;22.50;54.60
40323;DHT22;26030;51.164;17.100;2023-03-17T00:39:48;22.50;55.00
40323;DHT22;26030;51.164;17.100;2023-03-17T00:44:53;22.40;54.90
40323;DHT22;26030;51.164;17.100;2023-03-17T00:49:57;22.30;55.10
40323;DHT22;26030;51.164;17.100;2023-03-17T00:55:01;22.20;55.00
40323;DHT22;26030;51.164;17.100;2023-03-17T01:00:15;22.20;54.90
40323;DHT22;26030;51.164;17.100;2023-03-17T01:05:21;22.20;54.80
40323;DHT22;26030;51.164;17.100;2023-03-17T01:10:27;22.30;54.70
40323;DHT22;26030;51.164;17.100;2023-03-17T01:15:32;22.20;54.40
40323;DHT22;26030;51.164;17.100;2023-03-17T01:20:37;22.20;54.40
40323;DHT22;26030;51.164;17.100;2023-03-17T01:25:42;22.20;54.30
40323;DHT22;26030;51.164;17.100;2023-03-17T01:30:47;22.10;54.50
40323;DHT22;26030;51.164;17.100;2023-03-17T01:35:52;21.90;55.30
40323;DHT22;26030;51.164;17.100;2023-03-17T01:40:57;21.90;55.80
40323;DHT22;26030;51.164;17.100;2023-03-17T01:57:19;21.90;55.50
40323;DHT22;26030;51.164;17.100;2023-03-17T02:02:37;22.20;55.00
40323;DHT22;26030;51.164;17.100;2023-03-17T02:07:43;22.40;54.30
40323;DHT22;26030;51.164;17.100;2023-03-17T02:12:53;22.70;54.60
40323;DHT22;26030;51.164;17.100;2023-03-17T02:18:01;22.80;53.50
40323;DHT22;26030;51.164;17.100;2023-03-17T02:23:06;23.00;53.00
40323;DHT22;26030;51.164;17.100;2023-03-17T02:28:12;23.00;53.10
40323;DHT22;26030;51.164;17.100;2023-03-17T02:33:18;23.00;52.60
40323;DHT22;26030;51.164;17.100;2023-03-17T02:38:23;23.00;52.80
40323;DHT22;26030;51.164;17.100;2023-03-17T02:43:27;22.90;52.90
40323;DHT22;26030;51.164;17.100;2023-03-17T02:48:32;22.90;53.30
40323;DHT22;26030;51.164;17.100;2023-03-17T02:53:39;23.00;53.00
40323;DHT22;26030;51.164;17.100;2023-03-17T02:58:43;23.00;53.10
40323;DHT22;26030;51.164;17.100;2023-03-17T03:03:47;23.00;52.80
40323;DHT22;26030;51.164;17.100;2023-03-17T03:08:52;23.00;52.70
40323;DHT22;26030;51.164;17.100;2023-03-17T03:13:56;23.10;52.60
40323;DHT22;26030;51.164;17.100;2023-03-17T03:19:00;23.10;52.50
40323;DHT22;26030;51.164;17.100;2023-03-17T03:24:05;23.10;52.60
40323;DHT22;26030;51.164;17.100;2023-03-17T03:29:09;23.10;52.50
40323;DHT22;26030;51.164;17.100;2023-03-17T03:34:14;23.10;52.50
40323;DHT22;26030;51.164;17.100;2023-03-17T03:39:18;23.10;52.70
40323;DHT22;26030;51.164;17.100;2023-03-17T03:44:23;23.10;53.30
40323;DHT22;26030;51.164;17.100;2023-03-17T03:49:27;23.10;52.50
40323;DHT22;26030;51.164;17.100;2023-03-17T03:54:31;23.20;52.30
40323;DHT22;26030;51.164;17.100;2023-03-17T03:59:35;23.30;52.80
40323;DHT22;26030;51.164;17.100;2023-03-17T04:04:40;23.30;52.00
40323;DHT22;26030;51.164;17.100;2023-03-17T04:09:44;23.30;51.70
40323;DHT22;26030;51.164;17.100;2023-03-17T04:14:48;23.20;51.70
40323;DHT22;26030;51.164;17.100;2023-03-17T04:19:53;23.10;51.70
40323;DHT22;26030;51.164;17.100;2023-03-17T04:24:57;23.10;53.00
40323;DHT22;26030;51.164;17.100;2023-03-17T04:30:02;22.80;52.30
40323;DHT22;26030;51.164;17.100;2023-03-17T04:35:07;22.80;52.50
40323;DHT22;26030;51.164;17.100;2023-03-17T04:40:16;22.70;52.90
40323;DHT22;26030;51.164;17.100;2023-03-17T04:45:21;22.60;52.90
40323;DHT22;26030;51.164;17.100;2023-03-17T04:50:25;22.50;53.00
40323;DHT22;26030;51.164;17.100;2023-03-17T04:55:29;22.50;53.20
40323;DHT22;26030;51.164;17.100;2023-03-17T05:00:33;22.40;53.50
40323;DHT22;26030;51.164;17.100;2023-03-17T05:05:41;22.40;53.30
40323;DHT22;26030;51.164;17.100;2023-03-17T05:10:45;22.30;53.50
40323;DHT22;26030;51.164;17.100;2023-03-17T05:15:50;22.30;53.30
40323;DHT22;26030;51.164;17.100;2023-03-17T05:20:56;22.10;53.70
40323;DHT22;26030;51.164;17.100;2023-03-17T05:26:00;22.10;53.80
40323;DHT22;26030;51.164;17.100;2023-03-17T05:31:05;22.10;53.60
40323;DHT22;26030;51.164;17.100;2023-03-17T05:36:12;22.00;54.00
40323;DHT22;26030;51.164;17.100;2023-03-17T05:41:17;22.00;53.90
40323;DHT22;26030;51.164;17.100;2023-03-17T05:46:21;22.00;53.70
40323;DHT22;26030;51.164;17.100;2023-03-17T05:51:25;21.90;54.10
40323;DHT22;26030;51.164;17.100;2023-03-17T05:56:30;21.90;53.70
40323;DHT22;26030;51.164;17.100;2023-03-17T06:01:36;21.90;53.70
40323;DHT22;26030;51.164;17.100;2023-03-17T06:06:40;22.10;53.40
40323;DHT22;26030;51.164;17.100;2023-03-17T06:11:44;22.30;53.10
40323;DHT22;26030;51.164;17.100;2023-03-17T06:16:48;22.50;52.80
40323;DHT22;26030;51.164;17.100;2023-03-17T06:21:52;22.80;52.10
40323;DHT22;26030;51.164;17.100;2023-03-17T06:26:57;22.90;51.60
40323;DHT22;26030;51.164;17.100;2023-03-17T06:32:01;23.00;51.50
40323;DHT22;26030;51.164;17.100;2023-03-17T06:37:22;23.00;52.10
40323;DHT22;26030;51.164;17.100;2023-03-17T06:42:26;23.00;51.30
40323;DHT22;26030;51.164;17.100;2023-03-17T06:47:30;23.00;51.40
40323;DHT22;26030;51.164;17.100;2023-03-17T06:52:35;23.00;51.50
40323;DHT22;26030;51.164;17.100;2023-03-17T06:57:39;23.00;51.30
40323;DHT22;26030;51.164;17.100;2023-03-17T07:02:44;23.10;51.40
40323;DHT22;26030;51.164;17.100;2023-03-17T07:07:48;23.10;51.20
40323;DHT22;26030;51.164;17.100;2023-03-17T07:12:53;23.20;51.50
40323;DHT22;26030;51.164;17.100;2023-03-17T07:17:57;23.30;51.30
40323;DHT22;26030;51.164;17.100;2023-03-17T07:23:02;23.30;50.60
40323;DHT22;26030;51.164;17.100;2023-03-17T07:28:06;23.30;50.70
40323;DHT22;26030;51.164;17.100;2023-03-17T07:33:14;23.30;51.00
40323;DHT22;26030;51.164;17.100;2023-03-17T07:38:23;23.30;51.10
40323;DHT22;26030;51.164;17.100;2023-03-17T07:43:27;23.20;51.30
40323;DHT22;26030;51.164;17.100;2023-03-17T07:48:31;23.10;51.60
40323;DHT22;26030;51.164;17.100;2023-03-17T07:53:36;23.10;51.40
40323;DHT22;26030;51.164;17.100;2023-03-17T07:58:40;23.10;51.90
40323;DHT22;26030;51.164;17.100;2023-03-17T08:03:45;23.00;52.00
40323;DHT22;26030;51.164;17.100;2023-03-17T08:08:50;22.90;51.80
40323;DHT22;26030;51.164;17.100;2023-03-17T08:13:54;23.00;52.10
40323;DHT22;26030;51.164;17.100;2023-03-17T08:18:59;23.00;52.00
40323;DHT22;26030;51.164;17.100;2023-03-17T08:24:03;22.80;52.20
40323;DHT22;26030;51.164;17.100;2023-03-17T08:29:08;22.80;52.90
40323;DHT22;26030;51.164;17.100;2023-03-17T08:34:12;22.80;52.70
40323;DHT22;26030;51.164;17.100;2023-03-17T08:39:17;22.90;52.60
40323;DHT22;26030;51.164;17.100;2023-03-17T08:44:21;22.80;52.50
40323;DHT22;26030;51.164;17.100;2023-03-17T08:49:25;22.70;52.70
40323;DHT22;26030;51.164;17.100;2023-03-17T08:54:30;22.60;52.90
40323;DHT22;26030;51.164;17.100;2023-03-17T08:59:34;22.60;52.60
40323;DHT22;26030;51.164;17.100;2023-03-17T09:04:38;22.60;52.50
40323;DHT22;26030;51.164;17.100;2023-03-17T09:09:42;22.50;52.80
40323;DHT22;26030;51.164;17.100;2023-03-17T09:14:46;22.40;52.80
40323;DHT22;26030;51.164;17.100;2023-03-17T09:19:51;22.40;52.70
40323;DHT22;26030;51.164;17.100;2023-03-17T09:24:55;22.40;52.60
40323;DHT22;26030;51.164;17.100;2023-03-17T09:29:59;22.50;52.40
40323;DHT22;26030;51.164;17.100;2023-03-17T09:35:03;22.60;52.10
40323;DHT22;26030;51.164;17.100;2023-03-17T09:40:09;22.60;53.10
40323;DHT22;26030;51.164;17.100;2023-03-17T09:45:39;22.70;56.10
40323;DHT22;26030;51.164;17.100;2023-03-17T09:50:51;22.90;55.30
40323;DHT22;26030;51.164;17.100;2023-03-17T09:56:01;22.80;54.00
40323;DHT22;26030;51.164;17.100;2023-03-17T10:01:10;22.70;53.50
40323;DHT22;26030;51.164;17.100;2023-03-17T10:11:46;22.70;53.30
40323;DHT22;26030;51.164;17.100;2023-03-17T10:16:59;22.70;53.30
40323;DHT22;26030;51.164;17.100;2023-03-17T10:27:19;22.70;52.90
40323;DHT22;26030;51.164;17.100;2023-03-17T10:32:24;22.60;52.70
40323;DHT22;26030;51.164;17.100;2023-03-17T10:37:29;22.60;53.40
40323;DHT22;26030;51.164;17.100;2023-03-17T10:42:45;22.70;53.40
40323;DHT22;26030;51.164;17.100;2023-03-17T10:47:51;22.80;53.20
40323;DHT22;26030;51.164;17.100;2023-03-17T10:53:14;22.80;53.50
40323;DHT22;26030;51.164;17.100;2023-03-17T11:03:46;22.90;52.60
40323;DHT22;26030;51.164;17.100;2023-03-17T11:08:52;22.90;52.60
40323;DHT22;26030;51.164;17.100;2023-03-17T11:14:01;23.00;52.40
40323;DHT22;26030;51.164;17.100;2023-03-17T11:19:08;22.90;52.50
40323;DHT22;26030;51.164;17.100;2023-03-17T11:24:27;22.90;52.40
40323;DHT22;26030;51.164;17.100;2023-03-17T11:40:30;22.70;49.20
40323;DHT22;26030;51.164;17.100;2023-03-17T11:51:27;22.70;49.70
40323;DHT22;26030;51.164;17.100;2023-03-17T11:56:57;22.60;50.00
40323;DHT22;26030;51.164;17.100;2023-03-17T12:07:29;22.60;50.60
40323;DHT22;26030;51.164;17.100;2023-03-17T12:12:39;22.60;50.60
40323;DHT22;26030;51.164;17.100;2023-03-17T12:23:37;22.50;50.60
40323;DHT22;26030;51.164;17.100;2023-03-17T12:29:01;22.60;50.80
40323;DHT22;26030;51.164;17.100;2023-03-17T12:39:18;22.50;50.70
40323;DHT22;26030;51.164;17.100;2023-03-17T12:55:00;22.60;50.40
40323;DHT22;26030;51.164;17.100;2023-03-17T13:00:15;22.60;50.10
40323;DHT22;26030;51.164;17.100;2023-03-17T13:05:29;22.60;50.40
40323;DHT22;26030;51.164;17.100;2023-03-17T13:10:40;22.60;49.90
40323;DHT22;26030;51.164;17.100;2023-03-17T13:15:52;22.60;50.00
40323;DHT22;26030;51.164;17.100;2023-03-17T13:26:01;22.60;49.70
40323;DHT22;26030;51.164;17.100;2023-03-17T13:41:54;22.60;49.60
40323;DHT22;26030;51.164;17.100;2023-03-17T13:52:26;22.50;49.50
40323;DHT22;26030;51.164;17.100;2023-03-17T13:57:36;22.50;49.40
40323;DHT22;26030;51.164;17.100;2023-03-17T14:02:42;22.60;49.40
40323;DHT22;26030;51.164;17.100;2023-03-17T14:07:51;22.60;49.70
40323;DHT22;26030;51.164;17.100;2023-03-17T14:18:17;22.50;49.70
40323;DHT22;26030;51.164;17.100;2023-03-17T14:23:22;22.50;49.30
40323;DHT22;26030;51.164;17.100;2023-03-17T14:28:29;22.50;49.50
40323;DHT22;26030;51.164;17.100;2023-03-17T14:33:38;22.50;49.00
40323;DHT22;26030;51.164;17.100;2023-03-17T14:38:48;22.50;49.10
40323;DHT22;26030;51.164;17.100;2023-03-17T14:43:57;22.50;49.00
40323;DHT22;26030;51.164;17.100;2023-03-17T14:49:03;22.60;48.90
40323;DHT22;26030;51.164;17.100;2023-03-17T14:54:30;22.60;48.70
40323;DHT22;26030;51.164;17.100;2023-03-17T14:59:38;22.50;48.70
40323;DHT22;26030;51.164;17.100;2023-03-17T15:04:54;22.50;48.70
40323;DHT22;26030;51.164;17.100;2023-03-17T15:10:01;22.50;48.40
40323;DHT22;26030;51.164;17.100;2023-03-17T15:15:12;22.30;48.60
40323;DHT22;26030;51.164;17.100;2023-03-17T15:20:26;22.30;48.60
40323;DHT22;26030;51.164;17.100;2023-03-17T15:25:38;22.30;48.60
40323;DHT22;26030;51.164;17.100;2023-03-17T15:30:48;22.20;48.80
40323;DHT22;26030;51.164;17.100;2023-03-17T15:35:55;22.20;48.80
40323;DHT22;26030;51.164;17.100;2023-03-17T15:41:05;22.10;49.10
40323;DHT22;26030;51.164;17.100;2023-03-17T15:46:28;22.00;48.70
40323;DHT22;26030;51.164;17.100;2023-03-17T15:51:37;22.00;48.90
40323;DHT22;26030;51.164;17.100;2023-03-17T15:56:41;22.10;48.80
40323;DHT22;26030;51.164;17.100;2023-03-17T16:01:45;22.00;48.50
40323;DHT22;26030;51.164;17.100;2023-03-17T16:06:50;21.90;49.10
40323;DHT22;26030;51.164;17.100;2023-03-17T16:11:54;21.90;49.80
40323;DHT22;26030;51.164;17.100;2023-03-17T16:16:58;21.90;50.80
40323;DHT22;26030;51.164;17.100;2023-03-17T16:22:02;22.00;50.70
40323;DHT22;26030;51.164;17.100;2023-03-17T16:27:14;21.90;50.70
40323;DHT22;26030;51.164;17.100;2023-03-17T16:32:19;21.90;50.80
40323;DHT22;26030;51.164;17.100;2023-03-17T16:37:23;21.90;50.80
40323;DHT22;26030;51.164;17.100;2023-03-17T16:42:27;21.80;51.30
40323;DHT22;26030;51.164;17.100;2023-03-17T16:47:31;22.00;51.70
40323;DHT22;26030;51.164;17.100;2023-03-17T16:52:36;22.00;51.50
40323;DHT22;26030;51.164;17.100;2023-03-17T16:57:41;22.00;51.60
40323;DHT22;26030;51.164;17.100;2023-03-17T17:02:48;21.90;51.60
40323;DHT22;26030;51.164;17.100;2023-03-17T17:07:54;21.90;51.70
40323;DHT22;26030;51.164;17.100;2023-03-17T17:13:01;21.90;51.90
40323;DHT22;26030;51.164;17.100;2023-03-17T17:18:12;21.90;50.70
40323;DHT22;26030;51.164;17.100;2023-03-17T17:23:20;21.90;52.00
40323;DHT22;26030;51.164;17.100;2023-03-17T17:28:26;22.00;51.50
40323;DHT22;26030;51.164;17.100;2023-03-17T17:33:31;21.90;51.80
40323;DHT22;26030;51.164;17.100;2023-03-17T17:38:40;22.00;51.40
40323;DHT22;26030;51.164;17.100;2023-03-17T17:43:46;21.90;51.10
40323;DHT22;26030;51.164;17.100;2023-03-17T17:48:53;21.90;51.40
40323;DHT22;26030;51.164;17.100;2023-03-17T17:54:00;21.80;51.30
40323;DHT22;26030;51.164;17.100;2023-03-17T17:59:08;21.80;51.70
40323;DHT22;26030;51.164;17.100;2023-03-17T18:04:14;21.90;51.50
40323;DHT22;26030;51.164;17.100;2023-03-17T18:09:20;22.30;50.80
40323;DHT22;26030;51.164;17.100;2023-03-17T18:14:27;22.70;50.00
40323;DHT22;26030;51.164;17.100;2023-03-17T18:19:35;22.90;50.00
40323;DHT22;26030;51.164;17.100;2023-03-17T18:24:42;23.00;49.70
40323;DHT22;26030;51.164;17.100;2023-03-17T18:29:47;23.00;49.30
40323;DHT22;26030;51.164;17.100;2023-03-17T18:34:53;23.00;49.20
40323;DHT22;26030;51.164;17.100;2023-03-17T18:40:03;23.10;49.00
40323;DHT22;26030;51.164;17.100;2023-03-17T18:45:22;23.10;49.00
40323;DHT22;26030;51.164;17.100;2023-03-17T18:50:30;23.20;49.00
40323;DHT22;26030;51.164;17.100;2023-03-17T18:55:36;23.30;48.80
40323;DHT22;26030;51.164;17.100;2023-03-17T19:00:42;23.30;49.00
40323;DHT22;26030;51.164;17.100;2023-03-17T19:05:48;23.40;48.80
40323;DHT22;26030;51.164;17.100;2023-03-17T19:10:56;23.50;48.50
40323;DHT22;26030;51.164;17.100;2023-03-17T19:16:06;23.50;48.30
40323;DHT22;26030;51.164;17.100;2023-03-17T19:21:12;23.40;48.80
40323;DHT22;26030;51.164;17.100;2023-03-17T19:26:19;23.30;49.00
40323;DHT22;26030;51.164;17.100;2023-03-17T19:31:24;23.20;49.60
40323;DHT22;26030;51.164;17.100;2023-03-17T19:36:34;23.00;49.40
40323;DHT22;26030;51.164;17.100;2023-03-17T19:41:43;23.00;50.20
40323;DHT22;26030;51.164;17.100;2023-03-17T19:46:52;22.90;50.10
40323;DHT22;26030;51.164;17.100;2023-03-17T19:51:59;22.90;49.60
40323;DHT22;26030;51.164;17.100;2023-03-17T19:57:07;22.80;50.20
40323;DHT22;26030;51.164;17.100;2023-03-17T20:02:12;22.60;50.00
40323;DHT22;26030;51.164;17.100;2023-03-17T20:07:22;22.60;50.80
40323;DHT22;26030;51.164;17.100;2023-03-17T20:12:29;22.70;50.90
40323;DHT22;26030;51.164;17.100;2023-03-17T20:17:41;22.60;51.20
40323;DHT22;26030;51.164;17.100;2023-03-17T20:22:47;22.50;51.50
40323;DHT22;26030;51.164;17.100;2023-03-17T20:27:54;22.60;51.10
40323;DHT22;26030;51.164;17.100;2023-03-17T20:33:00;22.60;51.40
40323;DHT22;26030;51.164;17.100;2023-03-17T20:38:06;22.50;52.30
40323;DHT22;26030;51.164;17.100;2023-03-17T20:43:13;22.50;52.80
40323;DHT22;26030;51.164;17.100;2023-03-17T20:48:19;22.50;52.30
40323;DHT22;26030;51.164;17.100;2023-03-17T20:53:28;22.50;52.10
40323;DHT22;26030;51.164;17.100;2023-03-17T20:58:40;22.50;52.00
40323;DHT22;26030;51.164;17.100;2023-03-17T21:03:51;22.50;52.10
40323;DHT22;26030;51.164;17.100;2023-03-17T21:08:57;22.40;52.10
40323;DHT22;26030;51.164;17.100;2023-03-17T21:14:04;22.30;52.10
40323;DHT22;26030;51.164;17.100;2023-03-17T21:19:13;22.10;52.40
40323;DHT22;26030;51.164;17.100;2023-03-17T21:24:25;22.00;52.50
40323;DHT22;26030;51.164;17.100;2023-03-17T21:29:39;22.10;53.20
40323;DHT22;26030;51.164;17.100;2023-03-17T21:34:54;22.20;54.00
40323;DHT22;26030;51.164;17.100;2023-03-17T21:40:14;22.20;53.90
40323;DHT22;26030;51.164;17.100;2023-03-17T21:45:44;22.10;54.10
40323;DHT22;26030;51.164;17.100;2023-03-17T21:51:04;22.10;53.40
40323;DHT22;26030;51.164;17.100;2023-03-17T21:56:21;22.00;53.80
40323;DHT22;26030;51.164;17.100;2023-03-17T22:01:37;21.80;53.90
40323;DHT22;26030;51.164;17.100;2023-03-17T22:06:53;21.70;53.50
40323;DHT22;26030;51.164;17.100;2023-03-17T22:12:09;21.70;53.80
40323;DHT22;26030;51.164;17.100;2023-03-17T22:17:24;21.60;53.50
40323;DHT22;26030;51.164;17.100;2023-03-17T22:22:36;21.60;53.50
40323;DHT22;26030;51.164;17.100;2023-03-17T22:27:47;21.60;53.20
40323;DHT22;26030;51.164;17.100;2023-03-17T22:32:56;21.50;53.10
40323;DHT22;26030;51.164;17.100;2023-03-17T22:38:05;21.70;56.00
40323;DHT22;26030;51.164;17.100;2023-03-17T22:43:11;21.70;56.40
40323;DHT22;26030;51.164;17.100;2023-03-17T22:48:21;21.80;55.90
40323;DHT22;26030;51.164;17.100;2023-03-17T22:53:30;21.70;55.50
40323;DHT22;26030;51.164;17.100;2023-03-17T22:58:38;21.60;55.30
40323;DHT22;26030;51.164;17.100;2023-03-17T23:03:48;21.60;54.90
40323;DHT22;26030;51.164;17.100;2023-03-17T23:08:53;21.60;54.60
40323;DHT22;26030;51.164;17.100;2023-03-17T23:13:57;22.00;53.80
40323;DHT22;26030;51.164;17.100;2023-03-17T23:19:02;22.40;52.70
40323;DHT22;26030;51.164;17.100;2023-03-17T23:24:06;22.70;52.00
40323;DHT22;26030;51.164;17.100;2023-03-17T23:29:11;22.80;51.50
40323;DHT22;26030;51.164;17.100;2023-03-17T23:34:15;23.00;50.80
40323;DHT22;26030;51.164;17.100;2023-03-17T23:39:19;23.20;50.30
40323;DHT22;26030;51.164;17.100;2023-03-17T23:44:23;23.10;50.20
40323;DHT22;26030;51.164;17.100;2023-03-17T23:49:27;23.10;50.00
40323;DHT22;26030;51.164;17.100;2023-03-17T23:54:32;23.10;50.10
40323;DHT22;26030;51.164;17.100;2023-03-17T23:59:36;23.10;49.80
